PAJNPAHN

Guest
Details From PAJN - Juneau Intl
To PAHN - HAINES
Flight Number -
Tags generated
Created
Modified
Stats Distance 61 nm / 114 km
Max Altitude 700 ft / 213 m
Waypoints 3
Social Downloads 0
Likes 0
Share VATSIM

Download

Looking for another format? Having issues loading an existing format? Contact us
Advertisement - Login to hide

Notes

Basic altitude profile: - Ascent Rate: 500ft/min - Ascent Speed: 120kts - Cruise Altitude: 30ft - Cruise Speed: 160kts - Descent Rate: 500ft/min - Descent Speed: 140kts Options: - Use NATs: yes - Use PACOTS: yes - Use low airways: yes - Use high airways: yes

Route

PAJN HNS PAHN

ID Type Via Altitude Latitude Longitude Leg Dist Tot Dist Heading (true) Name
O PAJN APT - 0 ft / 0 m 58.35496˚ -134.57628˚ - 0 nm - Juneau Intl
HNS NDB - 700 ft / 213 m 59.21208˚ -135.43086˚ 57 nm 57 nm 333° / 332° HAINES NDB
O PAHN APT - 0 ft / 0 m 59.24383˚ -135.52354˚ 3 nm 61 nm 304° / 304° HAINES

Altitude Profile

Advertisement - Login to hide

PAJN

Details ICAO PAJN (JNU)
Name Juneau Intl
Region USA (Alaska)
Timezone America/Juneau (UTC-8.0)
Stats Elevation 21 ft / 6 m (AMSL)
Location 58.354964° -134.576278°
Runways 1
Magnetic Variation 19.018° E

METAR

PAJN 262253Z 12018KT 10SM -RA FEW011 SCT046 OVC075 09/06 A2966

Decode

TAF

PAJN 261739Z 2618/2718 12015KT P6SM -RA SCT010 BKN045 OVC060 FM270900 11013KT P6SM VCSH SCT025 BKN050 FM271300 11018G28KT P6SM -SHRA OVC040

Decode

Departure Runways

ID Width Length Bearing (true) Bearing (mag) Surface Threshold Offset Overrun Length
08 150 ft / 46 m 8,430 ft / 2,570 m 104.87° 85.85° Asphalt 0 ft / 0 m 450 ft / 137 m
26 150 ft / 46 m 8,430 ft / 2,570 m 284.90° 265.88° Asphalt 0 ft / 0 m 225 ft / 69 m

PAHN

Details ICAO PAHN (HNS)
Name HAINES
Region USA (Alaska)
Timezone Unknown (UTC+0.0)
Stats Elevation 15 ft / 5 m (AMSL)
Location 59.243829° -135.523538°
Runways 1
Magnetic Variation 19.135° E

METAR

PAHN 262254Z AUTO 12008KT 10SM OVC055 09/06 A2967 RMK AO2 SLP049 T00940056 TSNO

Decode

TAF

TAF PAHN 261739Z 2618/2718 08011G18KT P6SM -RA OVC015 AMD LTD TO CLD VIS AND WIND

Decode

Destination Runways

ID Width Length Bearing (true) Bearing (mag) Surface Threshold Offset Overrun Length
08 100 ft / 30 m 3,988 ft / 1,216 m 110.17° 91.04° Asphalt 0 ft / 0 m 300 ft / 91 m
26 100 ft / 30 m 3,988 ft / 1,216 m 290.19° 271.06° Asphalt 1,000 ft / 305 m 300 ft / 91 m

Popular Alternatives